sensor_id;sensor_type;location;lat;lon;timestamp;pressure;altitude;pressure_sealevel;temperature;humidity
13015;BME280;6573;57.696;11.950;2023-02-03T00:00:14;101285.63;;;3.64;100.00
13015;BME280;6573;57.696;11.950;2023-02-03T00:02:42;101282.84;;;3.60;100.00
13015;BME280;6573;57.696;11.950;2023-02-03T00:05:11;101277.72;;;3.61;100.00
13015;BME280;6573;57.696;11.950;2023-02-03T00:07:40;101267.09;;;3.55;100.00
13015;BME280;6573;57.696;11.950;2023-02-03T00:10:11;101259.38;;;3.58;100.00
13015;BME280;6573;57.696;11.950;2023-02-03T00:12:40;101247.31;;;3.60;100.00
13015;BME280;6573;57.696;11.950;2023-02-03T00:15:09;101234.38;;;3.62;100.00
13015;BME280;6573;57.696;11.950;2023-02-03T00:17:37;101235.44;;;3.68;100.00
13015;BME280;6573;57.696;11.950;2023-02-03T00:20:06;101223.56;;;3.76;100.00
13015;BME280;6573;57.696;11.950;2023-02-03T00:22:34;101221.59;;;3.69;100.00
13015;BME280;6573;57.696;11.950;2023-02-03T00:25:04;101218.34;;;3.76;100.00
13015;BME280;6573;57.696;11.950;2023-02-03T00:27:33;101219.25;;;3.77;100.00
13015;BME280;6573;57.696;11.950;2023-02-03T00:30:03;101197.72;;;3.82;100.00
13015;BME280;6573;57.696;11.950;2023-02-03T00:32:31;101190.47;;;3.72;100.00
13015;BME280;6573;57.696;11.950;2023-02-03T00:34:59;101192.13;;;3.70;100.00
13015;BME280;6573;57.696;11.950;2023-02-03T00:37:28;101193.72;;;3.65;100.00
13015;BME280;6573;57.696;11.950;2023-02-03T00:39:56;101188.63;;;3.68;100.00
13015;BME280;6573;57.696;11.950;2023-02-03T00:42:24;101164.44;;;3.72;100.00
13015;BME280;6573;57.696;11.950;2023-02-03T00:44:57;101159.25;;;3.72;100.00
13015;BME280;6573;57.696;11.950;2023-02-03T00:47:25;101153.78;;;3.63;100.00
13015;BME280;6573;57.696;11.950;2023-02-03T00:49:53;101145.31;;;3.70;100.00
13015;BME280;6573;57.696;11.950;2023-02-03T00:52:22;101129.78;;;3.73;100.00
13015;BME280;6573;57.696;11.950;2023-02-03T00:54:50;101126.53;;;3.80;100.00
13015;BME280;6573;57.696;11.950;2023-02-03T00:57:18;101127.16;;;3.72;100.00
13015;BME280;6573;57.696;11.950;2023-02-03T00:59:46;101124.50;;;3.70;100.00
13015;BME280;6573;57.696;11.950;2023-02-03T01:02:17;101108.88;;;3.70;100.00
13015;BME280;6573;57.696;11.950;2023-02-03T01:04:45;101107.41;;;3.78;100.00
13015;BME280;6573;57.696;11.950;2023-02-03T01:07:13;101088.28;;;3.76;100.00
13015;BME280;6573;57.696;11.950;2023-02-03T01:09:42;101072.91;;;3.85;100.00
13015;BME280;6573;57.696;11.950;2023-02-03T01:12:10;101062.25;;;3.76;100.00
13015;BME280;6573;57.696;11.950;2023-02-03T01:14:38;101056.19;;;3.77;100.00
13015;BME280;6573;57.696;11.950;2023-02-03T01:17:07;101055.56;;;3.84;100.00
13015;BME280;6573;57.696;11.950;2023-02-03T01:19:36;101031.28;;;3.85;100.00
13015;BME280;6573;57.696;11.950;2023-02-03T01:22:05;101031.06;;;3.78;100.00
13015;BME280;6573;57.696;11.950;2023-02-03T01:24:33;101005.03;;;3.76;100.00
13015;BME280;6573;57.696;11.950;2023-02-03T01:27:01;100996.22;;;3.71;100.00
13015;BME280;6573;57.696;11.950;2023-02-03T01:29:31;100985.53;;;3.62;100.00
13015;BME280;6573;57.696;11.950;2023-02-03T01:32:00;100980.59;;;3.71;100.00
13015;BME280;6573;57.696;11.950;2023-02-03T01:34:29;100968.41;;;3.70;100.00
13015;BME280;6573;57.696;11.950;2023-02-03T01:36:58;100961.53;;;3.72;100.00
13015;BME280;6573;57.696;11.950;2023-02-03T01:39:27;100957.22;;;3.73;100.00
13015;BME280;6573;57.696;11.950;2023-02-03T01:41:55;100937.06;;;3.64;100.00
13015;BME280;6573;57.696;11.950;2023-02-03T01:44:41;100929.38;;;3.69;100.00
13015;BME280;6573;57.696;11.950;2023-02-03T01:47:14;100912.19;;;3.75;100.00
13015;BME280;6573;57.696;11.950;2023-02-03T01:49:47;100898.28;;;3.75;100.00
13015;BME280;6573;57.696;11.950;2023-02-03T01:52:18;100894.63;;;3.67;100.00
13015;BME280;6573;57.696;11.950;2023-02-03T01:54:47;100879.88;;;3.67;100.00
13015;BME280;6573;57.696;11.950;2023-02-03T01:57:21;100857.34;;;3.66;100.00
13015;BME280;6573;57.696;11.950;2023-02-03T01:59:51;100853.88;;;3.67;100.00
13015;BME280;6573;57.696;11.950;2023-02-03T02:02:21;100847.88;;;3.70;100.00
13015;BME280;6573;57.696;11.950;2023-02-03T02:04:54;100838.03;;;3.58;100.00
13015;BME280;6573;57.696;11.950;2023-02-03T02:07:25;100823.44;;;3.63;100.00
13015;BME280;6573;57.696;11.950;2023-02-03T02:09:53;100808.53;;;3.56;100.00
13015;BME280;6573;57.696;11.950;2023-02-03T02:12:22;100795.50;;;3.55;100.00
13015;BME280;6573;57.696;11.950;2023-02-03T02:14:50;100780.69;;;3.52;100.00
13015;BME280;6573;57.696;11.950;2023-02-03T02:17:33;100775.63;;;3.58;100.00
13015;BME280;6573;57.696;11.950;2023-02-03T02:23:43;100758.41;;;3.63;100.00
13015;BME280;6573;57.696;11.950;2023-02-03T02:26:42;100756.59;;;3.59;100.00
13015;BME280;6573;57.696;11.950;2023-02-03T02:32:34;100732.59;;;3.72;100.00
13015;BME280;6573;57.696;11.950;2023-02-03T02:35:17;100722.28;;;3.75;100.00
13015;BME280;6573;57.696;11.950;2023-02-03T02:37:49;100710.13;;;3.74;100.00
13015;BME280;6573;57.696;11.950;2023-02-03T02:40:24;100700.53;;;3.72;100.00
13015;BME280;6573;57.696;11.950;2023-02-03T02:43:03;100687.34;;;3.64;100.00
13015;BME280;6573;57.696;11.950;2023-02-03T02:45:42;100677.97;;;3.71;100.00
13015;BME280;6573;57.696;11.950;2023-02-03T02:48:19;100661.34;;;3.64;100.00
13015;BME280;6573;57.696;11.950;2023-02-03T02:50:52;100663.31;;;3.74;100.00
13015;BME280;6573;57.696;11.950;2023-02-03T02:53:23;100645.91;;;3.72;100.00
13015;BME280;6573;57.696;11.950;2023-02-03T02:55:53;100640.88;;;3.79;100.00
13015;BME280;6573;57.696;11.950;2023-02-03T02:58:23;100597.09;;;3.60;100.00
13015;BME280;6573;57.696;11.950;2023-02-03T03:00:53;100621.72;;;3.77;100.00
13015;BME280;6573;57.696;11.950;2023-02-03T03:03:24;100611.41;;;3.80;100.00
13015;BME280;6573;57.696;11.950;2023-02-03T03:05:55;100590.75;;;3.89;100.00
13015;BME280;6573;57.696;11.950;2023-02-03T03:08:28;100577.72;;;3.86;100.00
13015;BME280;6573;57.696;11.950;2023-02-03T03:10:59;100573.09;;;3.73;100.00
13015;BME280;6573;57.696;11.950;2023-02-03T03:13:33;100554.09;;;3.77;100.00
13015;BME280;6573;57.696;11.950;2023-02-03T03:16:05;100538.44;;;3.74;100.00
13015;BME280;6573;57.696;11.950;2023-02-03T03:18:40;100531.63;;;3.79;100.00
13015;BME280;6573;57.696;11.950;2023-02-03T03:21:13;100516.84;;;3.78;100.00
13015;BME280;6573;57.696;11.950;2023-02-03T03:23:44;100504.88;;;3.88;100.00
13015;BME280;6573;57.696;11.950;2023-02-03T03:26:20;100481.31;;;3.80;100.00
13015;BME280;6573;57.696;11.950;2023-02-03T03:28:51;100470.81;;;3.74;100.00
13015;BME280;6573;57.696;11.950;2023-02-03T03:31:22;100472.78;;;3.87;100.00
13015;BME280;6573;57.696;11.950;2023-02-03T03:33:52;100464.94;;;3.84;100.00
13015;BME280;6573;57.696;11.950;2023-02-03T03:36:24;100444.97;;;3.83;100.00
13015;BME280;6573;57.696;11.950;2023-02-03T03:39:01;100393.97;;;3.45;100.00
13015;BME280;6573;57.696;11.950;2023-02-03T03:41:38;100420.44;;;3.69;100.00
13015;BME280;6573;57.696;11.950;2023-02-03T03:44:11;100410.88;;;3.68;100.00
13015;BME280;6573;57.696;11.950;2023-02-03T03:46:44;100387.34;;;3.62;100.00
13015;BME280;6573;57.696;11.950;2023-02-03T03:49:18;100388.28;;;3.64;100.00
13015;BME280;6573;57.696;11.950;2023-02-03T03:51:50;100378.69;;;3.63;100.00
13015;BME280;6573;57.696;11.950;2023-02-03T03:54:22;100377.13;;;3.71;100.00
13015;BME280;6573;57.696;11.950;2023-02-03T03:56:55;100372.88;;;3.76;100.00
13015;BME280;6573;57.696;11.950;2023-02-03T03:59:30;100358.91;;;3.71;100.00
13015;BME280;6573;57.696;11.950;2023-02-03T04:01:59;100357.13;;;3.69;100.00
13015;BME280;6573;57.696;11.950;2023-02-03T04:04:34;100335.31;;;3.59;100.00
13015;BME280;6573;57.696;11.950;2023-02-03T04:07:03;100333.59;;;3.61;100.00
13015;BME280;6573;57.696;11.950;2023-02-03T04:09:31;100312.84;;;3.64;100.00
13015;BME280;6573;57.696;11.950;2023-02-03T04:12:02;100298.78;;;3.53;100.00
13015;BME280;6573;57.696;11.950;2023-02-03T04:14:33;100295.53;;;3.66;100.00
13015;BME280;6573;57.696;11.950;2023-02-03T04:17:03;100273.72;;;3.57;100.00
13015;BME280;6573;57.696;11.950;2023-02-03T04:19:33;100270.38;;;3.65;100.00
13015;BME280;6573;57.696;11.950;2023-02-03T04:22:01;100260.78;;;3.61;100.00
13015;BME280;6573;57.696;11.950;2023-02-03T04:24:29;100250.44;;;3.64;100.00
13015;BME280;6573;57.696;11.950;2023-02-03T04:26:58;100231.38;;;3.65;100.00
13015;BME280;6573;57.696;11.950;2023-02-03T04:29:26;100211.25;;;3.55;100.00
13015;BME280;6573;57.696;11.950;2023-02-03T04:31:55;100215.69;;;3.59;100.00
13015;BME280;6573;57.696;11.950;2023-02-03T04:34:23;100208.78;;;3.61;100.00
13015;BME280;6573;57.696;11.950;2023-02-03T04:36:53;100188.91;;;3.66;100.00
13015;BME280;6573;57.696;11.950;2023-02-03T04:39:21;100165.34;;;3.54;100.00
13015;BME280;6573;57.696;11.950;2023-02-03T04:41:50;100174.03;;;3.56;100.00
13015;BME280;6573;57.696;11.950;2023-02-03T04:44:18;100165.44;;;3.62;100.00
13015;BME280;6573;57.696;11.950;2023-02-03T04:46:46;100151.44;;;3.52;100.00
13015;BME280;6573;57.696;11.950;2023-02-03T04:49:14;100129.59;;;3.40;100.00
13015;BME280;6573;57.696;11.950;2023-02-03T04:51:43;100128.75;;;3.42;100.00
13015;BME280;6573;57.696;11.950;2023-02-03T04:54:13;100127.22;;;3.56;100.00
13015;BME280;6573;57.696;11.950;2023-02-03T04:56:42;100114.13;;;3.49;100.00
13015;BME280;6573;57.696;11.950;2023-02-03T04:59:10;100118.47;;;3.51;100.00
13015;BME280;6573;57.696;11.950;2023-02-03T05:01:38;100101.06;;;3.44;100.00
13015;BME280;6573;57.696;11.950;2023-02-03T05:04:07;100092.44;;;3.48;100.00
13015;BME280;6573;57.696;11.950;2023-02-03T05:06:35;100089.06;;;3.55;100.00
13015;BME280;6573;57.696;11.950;2023-02-03T05:09:03;100093.38;;;3.52;100.00
13015;BME280;6573;57.696;11.950;2023-02-03T05:11:33;100075.19;;;3.53;100.00
13015;BME280;6573;57.696;11.950;2023-02-03T05:14:02;100070.81;;;3.51;100.00
13015;BME280;6573;57.696;11.950;2023-02-03T05:16:31;100064.72;;;3.47;100.00
13015;BME280;6573;57.696;11.950;2023-02-03T05:18:59;100049.00;;;3.41;100.00
13015;BME280;6573;57.696;11.950;2023-02-03T05:21:28;100039.34;;;3.33;100.00
13015;BME280;6573;57.696;11.950;2023-02-03T05:23:56;100024.72;;;3.39;100.00
13015;BME280;6573;57.696;11.950;2023-02-03T05:26:26;100019.59;;;3.42;100.00
13015;BME280;6573;57.696;11.950;2023-02-03T05:28:55;100011.06;;;3.52;100.00
13015;BME280;6573;57.696;11.950;2023-02-03T05:31:23;99993.50;;;3.36;100.00
13015;BME280;6573;57.696;11.950;2023-02-03T05:33:52;99992.66;;;3.40;100.00
13015;BME280;6573;57.696;11.950;2023-02-03T05:36:20;99986.69;;;3.46;100.00
13015;BME280;6573;57.696;11.950;2023-02-03T05:38:48;99969.38;;;3.46;100.00
13015;BME280;6573;57.696;11.950;2023-02-03T05:41:17;99963.19;;;3.37;100.00
13015;BME280;6573;57.696;11.950;2023-02-03T05:44:04;99963.09;;;3.29;100.00
13015;BME280;6573;57.696;11.950;2023-02-03T05:46:32;99930.88;;;3.18;100.00
13015;BME280;6573;57.696;11.950;2023-02-03T05:49:00;99924.94;;;3.26;100.00
13015;BME280;6573;57.696;11.950;2023-02-03T05:51:29;99915.47;;;3.33;100.00
13015;BME280;6573;57.696;11.950;2023-02-03T05:53:57;99899.09;;;3.39;100.00
13015;BME280;6573;57.696;11.950;2023-02-03T05:56:25;99887.00;;;3.42;100.00
13015;BME280;6573;57.696;11.950;2023-02-03T05:58:54;99888.75;;;3.43;100.00
13015;BME280;6573;57.696;11.950;2023-02-03T06:01:23;99867.91;;;3.40;100.00
13015;BME280;6573;57.696;11.950;2023-02-03T06:03:52;99867.72;;;3.23;100.00
13015;BME280;6573;57.696;11.950;2023-02-03T06:06:21;99866.06;;;3.28;100.00
13015;BME280;6573;57.696;11.950;2023-02-03T06:08:49;99869.56;;;3.32;100.00
13015;BME280;6573;57.696;11.950;2023-02-03T06:11:22;99852.31;;;3.39;100.00
13015;BME280;6573;57.696;11.950;2023-02-03T06:13:51;99853.19;;;3.39;100.00
13015;BME280;6573;57.696;11.950;2023-02-03T06:16:19;99842.88;;;3.48;100.00
13015;BME280;6573;57.696;11.950;2023-02-03T06:18:49;99832.50;;;3.51;100.00
13015;BME280;6573;57.696;11.950;2023-02-03T06:21:18;99834.22;;;3.49;100.00
13015;BME280;6573;57.696;11.950;2023-02-03T06:23:47;99825.53;;;3.47;100.00
13015;BME280;6573;57.696;11.950;2023-02-03T06:26:16;99820.38;;;3.53;100.00
13015;BME280;6573;57.696;11.950;2023-02-03T06:28:44;99818.69;;;3.58;100.00
13015;BME280;6573;57.696;11.950;2023-02-03T06:31:12;99782.03;;;3.28;100.00
13015;BME280;6573;57.696;11.950;2023-02-03T06:33:41;99797.84;;;3.49;100.00
13015;BME280;6573;57.696;11.950;2023-02-03T06:36:12;99790.97;;;3.60;100.00
13015;BME280;6573;57.696;11.950;2023-02-03T06:38:40;99761.44;;;3.49;100.00
13015;BME280;6573;57.696;11.950;2023-02-03T06:41:09;99776.22;;;3.58;100.00
13015;BME280;6573;57.696;11.950;2023-02-03T06:43:37;99784.00;;;3.53;100.00
13015;BME280;6573;57.696;11.950;2023-02-03T06:46:06;99760.53;;;3.46;100.00
13015;BME280;6573;57.696;11.950;2023-02-03T06:48:34;99756.22;;;3.46;100.00
13015;BME280;6573;57.696;11.950;2023-02-03T06:51:02;99752.75;;;3.47;100.00
13015;BME280;6573;57.696;11.950;2023-02-03T06:53:32;99743.28;;;3.54;100.00
13015;BME280;6573;57.696;11.950;2023-02-03T06:56:01;99738.94;;;3.54;100.00
13015;BME280;6573;57.696;11.950;2023-02-03T06:58:29;99733.69;;;3.48;100.00
13015;BME280;6573;57.696;11.950;2023-02-03T07:00:57;99736.25;;;3.45;100.00
13015;BME280;6573;57.696;11.950;2023-02-03T07:03:25;99733.72;;;3.51;100.00
13015;BME280;6573;57.696;11.950;2023-02-03T07:05:54;99744.16;;;3.57;100.00
13015;BME280;6573;57.696;11.950;2023-02-03T07:08:22;99751.03;;;3.49;100.00
13015;BME280;6573;57.696;11.950;2023-02-03T07:10:53;99737.22;;;3.56;100.00
13015;BME280;6573;57.696;11.950;2023-02-03T07:13:22;99745.88;;;3.55;100.00
13015;BME280;6573;57.696;11.950;2023-02-03T07:15:50;99748.53;;;3.61;100.00
13015;BME280;6573;57.696;11.950;2023-02-03T07:18:18;99756.31;;;3.58;100.00
13015;BME280;6573;57.696;11.950;2023-02-03T07:21:10;99754.56;;;3.60;100.00
13015;BME280;6573;57.696;11.950;2023-02-03T07:23:39;99760.66;;;3.62;100.00
13015;BME280;6573;57.696;11.950;2023-02-03T07:26:10;99756.38;;;3.64;100.00
13015;BME280;6573;57.696;11.950;2023-02-03T07:28:38;99754.56;;;3.54;100.00
13015;BME280;6573;57.696;11.950;2023-02-03T07:31:07;99763.25;;;3.59;100.00
13015;BME280;6573;57.696;11.950;2023-02-03T07:33:36;99730.25;;;3.49;100.00
13015;BME280;6573;57.696;11.950;2023-02-03T07:36:06;99754.47;;;3.48;100.00
13015;BME280;6573;57.696;11.950;2023-02-03T07:38:35;99758.84;;;3.49;100.00
13015;BME280;6573;57.696;11.950;2023-02-03T07:41:05;99740.53;;;3.40;100.00
13015;BME280;6573;57.696;11.950;2023-02-03T07:43:35;99749.25;;;3.45;100.00
13015;BME280;6573;57.696;11.950;2023-02-03T07:46:03;99756.34;;;3.61;100.00
13015;BME280;6573;57.696;11.950;2023-02-03T07:48:32;99749.47;;;3.69;100.00
13015;BME280;6573;57.696;11.950;2023-02-03T07:51:00;99756.47;;;3.82;100.00
13015;BME280;6573;57.696;11.950;2023-02-03T07:53:29;99766.78;;;3.70;100.00
13015;BME280;6573;57.696;11.950;2023-02-03T07:55:59;99762.47;;;3.71;100.00
13015;BME280;6573;57.696;11.950;2023-02-03T07:58:28;99772.00;;;3.70;100.00
13015;BME280;6573;57.696;11.950;2023-02-03T08:00:58;99761.56;;;3.67;100.00
13015;BME280;6573;57.696;11.950;2023-02-03T08:03:27;99765.81;;;3.55;100.00
13015;BME280;6573;57.696;11.950;2023-02-03T08:05:55;99780.63;;;3.63;100.00
13015;BME280;6573;57.696;11.950;2023-02-03T08:08:23;99777.13;;;3.61;100.00
13015;BME280;6573;57.696;11.950;2023-02-03T08:10:54;99780.66;;;3.66;100.00
13015;BME280;6573;57.696;11.950;2023-02-03T08:13:23;99779.69;;;3.60;100.00
13015;BME280;6573;57.696;11.950;2023-02-03T08:15:51;99792.75;;;3.61;100.00
13015;BME280;6573;57.696;11.950;2023-02-03T08:18:21;99789.25;;;3.62;100.00
13015;BME280;6573;57.696;11.950;2023-02-03T08:20:50;99790.94;;;3.54;100.00
13015;BME280;6573;57.696;11.950;2023-02-03T08:23:18;99798.81;;;3.63;100.00
13015;BME280;6573;57.696;11.950;2023-02-03T08:25:49;99805.88;;;3.76;100.00
13015;BME280;6573;57.696;11.950;2023-02-03T08:28:18;99818.03;;;3.79;100.00
13015;BME280;6573;57.696;11.950;2023-02-03T08:30:47;99817.16;;;3.78;100.00
13015;BME280;6573;57.696;11.950;2023-02-03T08:33:15;99820.63;;;3.79;100.00
13015;BME280;6573;57.696;11.950;2023-02-03T08:35:46;99836.19;;;3.77;100.00
13015;BME280;6573;57.696;11.950;2023-02-03T08:38:16;99810.06;;;3.62;100.00
13015;BME280;6573;57.696;11.950;2023-02-03T08:40:44;99853.59;;;3.81;100.00
13015;BME280;6573;57.696;11.950;2023-02-03T08:43:15;99851.69;;;3.65;100.00
13015;BME280;6573;57.696;11.950;2023-02-03T08:45:43;99862.22;;;3.77;100.00
13015;BME280;6573;57.696;11.950;2023-02-03T08:48:12;99872.63;;;3.77;100.00
13015;BME280;6573;57.696;11.950;2023-02-03T08:50:40;99872.72;;;3.89;100.00
13015;BME280;6573;57.696;11.950;2023-02-03T08:53:11;99885.78;;;3.94;100.00
13015;BME280;6573;57.696;11.950;2023-02-03T08:55:39;99889.91;;;3.69;100.00
13015;BME280;6573;57.696;11.950;2023-02-03T08:58:07;99900.25;;;3.66;100.00
13015;BME280;6573;57.696;11.950;2023-02-03T09:00:40;99909.03;;;3.74;100.00
13015;BME280;6573;57.696;11.950;2023-02-03T09:03:08;99915.03;;;3.69;100.00
13015;BME280;6573;57.696;11.950;2023-02-03T09:05:36;99933.28;;;3.73;100.00
13015;BME280;6573;57.696;11.950;2023-02-03T09:08:05;99933.38;;;3.85;100.00
13015;BME280;6573;57.696;11.950;2023-02-03T09:10:35;99947.28;;;3.87;100.00
13015;BME280;6573;57.696;11.950;2023-02-03T09:13:03;99947.19;;;3.78;100.00
13015;BME280;6573;57.696;11.950;2023-02-03T09:15:31;99969.69;;;3.73;100.00
13015;BME280;6573;57.696;11.950;2023-02-03T09:18:00;99966.28;;;3.80;100.00
13015;BME280;6573;57.696;11.950;2023-02-03T09:20:29;99971.47;;;3.80;100.00
13015;BME280;6573;57.696;11.950;2023-02-03T09:22:58;99988.84;;;3.81;100.00
13015;BME280;6573;57.696;11.950;2023-02-03T09:25:26;99995.81;;;3.85;100.00
13015;BME280;6573;57.696;11.950;2023-02-03T09:27:56;100008.03;;;3.92;100.00
13015;BME280;6573;57.696;11.950;2023-02-03T09:30:26;100020.81;;;3.73;100.00
13015;BME280;6573;57.696;11.950;2023-02-03T09:32:55;100028.66;;;3.77;100.00
13015;BME280;6573;57.696;11.950;2023-02-03T09:35:24;100035.63;;;3.78;100.00
13015;BME280;6573;57.696;11.950;2023-02-03T09:37:57;100044.34;;;3.83;100.00
13015;BME280;6573;57.696;11.950;2023-02-03T09:40:29;100060.00;;;3.86;100.00
13015;BME280;6573;57.696;11.950;2023-02-03T09:43:11;100044.22;;;3.71;100.00
13015;BME280;6573;57.696;11.950;2023-02-03T09:45:43;100062.56;;;3.83;100.00
13015;BME280;6573;57.696;11.950;2023-02-03T09:48:15;100072.13;;;3.87;100.00
13015;BME280;6573;57.696;11.950;2023-02-03T09:50:48;100089.66;;;4.01;100.00
13015;BME280;6573;57.696;11.950;2023-02-03T09:53:25;100113.81;;;3.90;100.00
13015;BME280;6573;57.696;11.950;2023-02-03T09:55:56;100120.03;;;4.03;100.00
13015;BME280;6573;57.696;11.950;2023-02-03T09:58:31;100132.94;;;3.96;100.00
13015;BME280;6573;57.696;11.950;2023-02-03T10:01:02;100146.13;;;4.08;100.00
13015;BME280;6573;57.696;11.950;2023-02-03T10:03:37;100165.22;;;4.10;100.00
13015;BME280;6573;57.696;11.950;2023-02-03T10:06:15;100176.28;;;3.93;100.00
13015;BME280;6573;57.696;11.950;2023-02-03T10:09:08;100192.03;;;4.03;100.00
13015;BME280;6573;57.696;11.950;2023-02-03T10:12:07;100199.81;;;4.01;100.00
13015;BME280;6573;57.696;11.950;2023-02-03T10:14:52;100207.72;;;4.09;100.00
13015;BME280;6573;57.696;11.950;2023-02-03T10:17:28;100210.38;;;4.15;100.00
13015;BME280;6573;57.696;11.950;2023-02-03T10:20:02;100216.47;;;4.14;100.00
13015;BME280;6573;57.696;11.950;2023-02-03T10:22:35;100225.06;;;4.10;100.00
13015;BME280;6573;57.696;11.950;2023-02-03T10:25:14;100240.63;;;4.04;100.00
13015;BME280;6573;57.696;11.950;2023-02-03T10:27:46;100249.25;;;4.01;100.00
13015;BME280;6573;57.696;11.950;2023-02-03T10:30:20;100245.78;;;4.01;100.00
13015;BME280;6573;57.696;11.950;2023-02-03T10:32:49;100251.09;;;4.07;100.00
13015;BME280;6573;57.696;11.950;2023-02-03T10:35:20;100262.31;;;4.06;100.00
13015;BME280;6573;57.696;11.950;2023-02-03T10:37:50;100254.53;;;4.06;100.00
13015;BME280;6573;57.696;11.950;2023-02-03T10:40:23;100248.38;;;4.01;100.00
13015;BME280;6573;57.696;11.950;2023-02-03T10:42:55;100244.94;;;4.03;100.00
13015;BME280;6573;57.696;11.950;2023-02-03T10:45:42;100267.63;;;4.12;100.00
13015;BME280;6573;57.696;11.950;2023-02-03T10:48:14;100254.56;;;4.09;100.00
13015;BME280;6573;57.696;11.950;2023-02-03T10:50:46;100286.09;;;4.30;100.00
13015;BME280;6573;57.696;11.950;2023-02-03T10:53:21;100283.25;;;4.12;100.00
13015;BME280;6573;57.696;11.950;2023-02-03T10:55:58;100323.53;;;4.39;100.00
13015;BME280;6573;57.696;11.950;2023-02-03T10:58:29;100336.44;;;4.32;100.00
13015;BME280;6573;57.696;11.950;2023-02-03T11:01:08;100355.59;;;4.34;100.00
13015;BME280;6573;57.696;11.950;2023-02-03T11:03:40;100359.25;;;4.48;100.00
13015;BME280;6573;57.696;11.950;2023-02-03T11:06:11;100351.50;;;4.54;100.00
13015;BME280;6573;57.696;11.950;2023-02-03T11:08:42;100353.13;;;4.44;100.00
13015;BME280;6573;57.696;11.950;2023-02-03T11:11:13;100376.66;;;4.49;100.00
13015;BME280;6573;57.696;11.950;2023-02-03T11:13:42;100366.13;;;4.43;100.00
13015;BME280;6573;57.696;11.950;2023-02-03T11:16:14;100392.41;;;4.58;100.00
13015;BME280;6573;57.696;11.950;2023-02-03T11:18:46;100392.22;;;4.46;100.00
13015;BME280;6573;57.696;11.950;2023-02-03T11:21:20;100390.53;;;4.49;100.00
13015;BME280;6573;57.696;11.950;2023-02-03T11:23:53;100409.69;;;4.53;100.00
13015;BME280;6573;57.696;11.950;2023-02-03T11:26:24;100433.19;;;4.59;100.00
13015;BME280;6573;57.696;11.950;2023-02-03T11:28:57;100456.56;;;4.54;100.00
13015;BME280;6573;57.696;11.950;2023-02-03T11:31:30;100449.66;;;4.55;100.00
13015;BME280;6573;57.696;11.950;2023-02-03T11:34:01;100477.25;;;4.44;100.00
13015;BME280;6573;57.696;11.950;2023-02-03T11:36:32;100498.13;;;4.47;100.00
13015;BME280;6573;57.696;11.950;2023-02-03T11:39:30;100515.44;;;4.45;100.00
13015;BME280;6573;57.696;11.950;2023-02-03T11:42:02;100517.41;;;4.58;100.00
13015;BME280;6573;57.696;11.950;2023-02-03T11:44:44;100534.78;;;4.59;100.00
13015;BME280;6573;57.696;11.950;2023-02-03T11:47:14;100536.56;;;4.60;100.00
13015;BME280;6573;57.696;11.950;2023-02-03T11:50:19;100547.78;;;4.57;100.00
13015;BME280;6573;57.696;11.950;2023-02-03T11:53:06;100551.34;;;4.63;100.00
13015;BME280;6573;57.696;11.950;2023-02-03T11:55:47;100569.66;;;4.67;100.00
13015;BME280;6573;57.696;11.950;2023-02-03T11:58:47;100571.38;;;4.65;100.00
13015;BME280;6573;57.696;11.950;2023-02-03T12:01:28;100572.19;;;4.63;100.00
13015;BME280;6573;57.696;11.950;2023-02-03T12:07:29;100592.22;;;4.65;100.00
13015;BME280;6573;57.696;11.950;2023-02-03T12:10:03;100599.34;;;4.75;100.00
13015;BME280;6573;57.696;11.950;2023-02-03T12:12:47;100614.91;;;4.72;100.00
13015;BME280;6573;57.696;11.950;2023-02-03T12:15:51;100625.44;;;4.78;100.00
13015;BME280;6573;57.696;11.950;2023-02-03T12:18:32;100641.28;;;4.90;100.00
13015;BME280;6573;57.696;11.950;2023-02-03T12:21:16;100662.09;;;4.87;100.00
13015;BME280;6573;57.696;11.950;2023-02-03T12:23:59;100679.47;;;4.88;100.00
13015;BME280;6573;57.696;11.950;2023-02-03T12:26:34;100681.16;;;4.86;100.00
13015;BME280;6573;57.696;11.950;2023-02-03T12:29:08;100698.50;;;4.84;100.00
13015;BME280;6573;57.696;11.950;2023-02-03T12:31:41;100703.94;;;4.96;100.00
13015;BME280;6573;57.696;11.950;2023-02-03T12:34:18;100702.19;;;4.95;100.00
13015;BME280;6573;57.696;11.950;2023-02-03T12:36:54;100723.88;;;4.94;100.00
13015;BME280;6573;57.696;11.950;2023-02-03T12:39:28;100740.25;;;4.87;100.00
13015;BME280;6573;57.696;11.950;2023-02-03T12:42:01;100740.38;;;4.93;100.00
13015;BME280;6573;57.696;11.950;2023-02-03T12:44:34;100741.22;;;4.92;100.00
13015;BME280;6573;57.696;11.950;2023-02-03T12:47:14;100756.06;;;4.96;100.00
13015;BME280;6573;57.696;11.950;2023-02-03T12:49:47;100765.78;;;5.03;100.00
13015;BME280;6573;57.696;11.950;2023-02-03T12:52:23;100760.66;;;5.08;100.00
13015;BME280;6573;57.696;11.950;2023-02-03T12:55:02;100776.28;;;5.08;100.00
13015;BME280;6573;57.696;11.950;2023-02-03T12:57:36;100791.19;;;5.16;100.00
13015;BME280;6573;57.696;11.950;2023-02-03T13:00:22;100805.13;;;5.18;100.00
13015;BME280;6573;57.696;11.950;2023-02-03T13:03:05;100814.00;;;5.27;100.00
13015;BME280;6573;57.696;11.950;2023-02-03T13:05:41;100815.84;;;5.34;100.00
13015;BME280;6573;57.696;11.950;2023-02-03T13:08:21;100813.75;;;5.14;100.00
13015;BME280;6573;57.696;11.950;2023-02-03T13:10:54;100810.03;;;5.00;100.00
13015;BME280;6573;57.696;11.950;2023-02-03T13:13:34;100827.31;;;4.95;100.00
13015;BME280;6573;57.696;11.950;2023-02-03T13:16:08;100844.56;;;4.90;100.00
13015;BME280;6573;57.696;11.950;2023-02-03T13:18:42;100842.63;;;4.80;100.00
13015;BME280;6573;57.696;11.950;2023-02-03T13:21:11;100848.09;;;4.92;100.00
13015;BME280;6573;57.696;11.950;2023-02-03T13:23:42;100853.63;;;5.07;100.00
13015;BME280;6573;57.696;11.950;2023-02-03T13:26:37;100863.78;;;4.95;100.00